Time;durP1;ratioP1;P1;durP2;ratioP2;P2;SDS_P1;SDS_P2;PMS_P1;PMS_P2;Temp;Humidity;BMP_temperature;BMP_pressure;BME280_temperature;BME280_humidity;BME280_pressure;Samples;Min_cycle;Max_cycle;Signal;HPM_P1;HPM_P2
2023/08/14 00:00:12;;;;;;;5.53;2.90;;;22.80;85.60;;;;;;4978846;28;20037;-70
2023/08/14 00:02:38;;;;;;;4.22;2.53;;;22.70;87.60;;;;;;4973066;28;20031;-70
2023/08/14 00:05:03;;;;;;;3.87;2.77;;;22.80;86.00;;;;;;4971783;28;20040;-70
2023/08/14 00:07:29;;;;;;;12.30;2.88;;;22.90;85.60;;;;;;4976464;28;20035;-70
2023/08/14 00:09:55;;;;;;;6.25;2.40;;;22.70;87.70;;;;;;4978436;28;20034;-70
2023/08/14 00:12:20;;;;;;;5.43;2.60;;;22.60;85.90;;;;;;4979063;28;20443;-70
2023/08/14 00:14:46;;;;;;;9.90;2.77;;;22.80;86.40;;;;;;4981958;28;20027;-69
2023/08/14 00:17:11;;;;;;;9.17;2.83;;;22.80;84.30;;;;;;4977692;28;20110;-70
2023/08/14 00:19:37;;;;;;;5.93;2.50;;;22.60;87.30;;;;;;4972554;28;20043;-69
2023/08/14 00:22:03;;;;;;;5.30;2.57;;;22.80;83.10;;;;;;4977697;28;20023;-71
2023/08/14 00:24:28;;;;;;;5.65;2.88;;;23.00;83.10;;;;;;4977593;28;20027;-70
2023/08/14 00:26:54;;;;;;;4.20;2.63;;;23.00;86.20;;;;;;4983120;28;20891;-71
2023/08/14 00:29:19;;;;;;;6.93;2.87;;;22.80;84.60;;;;;;4977434;28;20074;-71
2023/08/14 00:31:45;;;;;;;4.00;2.33;;;22.90;86.10;;;;;;4975842;28;20027;-71
2023/08/14 00:34:10;;;;;;;4.43;2.30;;;22.80;84.50;;;;;;4981266;28;20552;-71
2023/08/14 00:36:36;;;;;;;4.60;2.80;;;22.90;84.30;;;;;;4975970;28;20033;-71
2023/08/14 00:39:03;;;;;;;5.60;2.45;;;22.90;84.00;;;;;;4982648;28;20061;-70
2023/08/14 00:41:28;;;;;;;5.40;2.55;;;22.80;81.80;;;;;;4980839;28;20152;-71
2023/08/14 00:43:54;;;;;;;7.03;3.70;;;23.00;81.20;;;;;;4978902;28;20069;-71
2023/08/14 00:46:20;;;;;;;3.20;2.53;;;23.00;81.70;;;;;;4981030;28;20102;-71
2023/08/14 00:48:45;;;;;;;3.88;2.60;;;22.90;84.90;;;;;;4979080;28;20042;-70
2023/08/14 00:51:11;;;;;;;6.73;2.77;;;23.10;81.40;;;;;;4980317;28;20042;-70
2023/08/14 00:53:37;;;;;;;5.00;2.80;;;22.80;85.00;;;;;;4974245;28;20037;-70
2023/08/14 00:56:04;;;;;;;6.53;2.93;;;22.70;85.60;;;;;;4976858;28;20034;-69
2023/08/14 00:58:30;;;;;;;4.53;2.42;;;22.90;83.50;;;;;;4980283;28;20300;-70
2023/08/14 01:00:58;;;;;;;11.95;3.22;;;22.90;86.00;;;;;;4974549;28;20050;-71
2023/08/14 01:03:24;;;;;;;7.93;2.83;;;22.80;85.40;;;;;;4974164;28;20030;-69
2023/08/14 01:05:50;;;;;;;3.28;2.40;;;22.80;83.50;;;;;;4975723;28;20061;-71
2023/08/14 01:08:15;;;;;;;5.17;2.80;;;22.70;87.80;;;;;;4976785;28;20489;-71
2023/08/14 01:10:59;;;;;;;8.67;3.40;;;22.70;84.10;;;;;;4974662;28;20097;-70
2023/08/14 01:13:44;;;;;;;4.05;2.60;;;22.70;83.50;;;;;;4983288;28;20056;-70
2023/08/14 01:16:14;;;;;;;6.88;3.20;;;22.70;86.40;;;;;;4979382;28;20034;-70
2023/08/14 01:18:42;;;;;;;4.13;2.30;;;22.60;89.30;;;;;;4979451;28;20053;-70
2023/08/14 01:21:17;;;;;;;4.43;2.60;;;22.60;87.40;;;;;;4977522;28;20035;-71
2023/08/14 01:24:02;;;;;;;4.38;2.50;;;22.60;88.00;;;;;;4976271;28;20026;-70
2023/08/14 01:26:28;;;;;;;6.38;3.83;;;22.50;87.70;;;;;;4977403;28;20437;-70
2023/08/14 01:28:55;;;;;;;;;;;22.80;85.30;;;;;;4982006;28;20035;-70
2023/08/14 01:31:20;;;;;;;5.85;3.17;;;22.70;86.00;;;;;;4977352;28;19914;-69
2023/08/14 01:33:46;;;;;;;6.63;3.10;;;22.70;85.50;;;;;;4976915;28;20043;-70
2023/08/14 01:36:25;;;;;;;8.17;3.10;;;22.60;85.60;;;;;;4982244;28;20292;-70
2023/08/14 01:39:17;;;;;;;5.32;3.10;;;22.60;86.20;;;;;;4983517;28;20030;-70
2023/08/14 01:42:11;;;;;;;8.23;3.20;;;22.30;87.60;;;;;;4977790;28;20042;-70
2023/08/14 01:44:40;;;;;;;6.40;3.03;;;22.30;89.00;;;;;;4979281;28;20037;-71
2023/08/14 01:47:10;;;;;;;3.97;2.60;;;22.30;88.40;;;;;;4983673;28;20022;-70
2023/08/14 01:49:38;;;;;;;5.40;3.13;;;22.30;87.40;;;;;;4980311;28;20049;-70
2023/08/14 01:52:05;;;;;;;8.32;3.20;;;22.50;86.40;;;;;;4974751;28;20837;-71
2023/08/14 01:54:30;;;;;;;6.10;3.15;;;22.50;87.90;;;;;;4979339;28;20038;-70
2023/08/14 01:56:56;;;;;;;3.57;2.50;;;22.50;87.70;;;;;;4980767;28;20027;-70
2023/08/14 01:59:34;;;;;;;7.85;3.47;;;22.50;88.10;;;;;;4974646;28;20092;-70
2023/08/14 02:01:59;;;;;;;5.65;2.83;;;22.50;89.90;;;;;;4984192;28;20030;-70
2023/08/14 02:04:25;;;;;;;3.80;2.70;;;22.40;87.90;;;;;;4980894;28;20536;-70
2023/08/14 02:06:51;;;;;;;5.07;3.07;;;22.40;88.10;;;;;;4983802;28;20022;-70
2023/08/14 02:09:16;;;;;;;6.03;3.73;;;22.40;87.30;;;;;;4980711;28;20330;-70
2023/08/14 02:11:42;;;;;;;4.27;2.53;;;22.40;88.70;;;;;;4977555;28;20494;-70
2023/08/14 02:14:07;;;;;;;3.47;2.80;;;22.40;87.30;;;;;;4978625;28;20026;-71
2023/08/14 02:16:33;;;;;;;4.07;2.97;;;22.20;90.40;;;;;;4976757;28;20035;-70
2023/08/14 02:18:58;;;;;;;8.50;3.47;;;22.30;89.30;;;;;;4977542;28;20351;-69
2023/08/14 02:21:24;;;;;;;4.83;3.10;;;22.30;89.00;;;;;;4975560;28;20031;-71
2023/08/14 02:23:50;;;;;;;6.47;3.30;;;22.10;90.70;;;;;;4981325;28;20455;-70
2023/08/14 02:26:15;;;;;;;5.47;3.43;;;22.10;90.60;;;;;;4989432;28;20029;-69
2023/08/14 02:28:41;;;;;;;5.30;3.75;;;22.30;89.40;;;;;;4984296;28;20117;-71
2023/08/14 02:31:08;;;;;;;4.37;2.90;;;22.40;89.10;;;;;;4971772;28;20109;-70
2023/08/14 02:33:34;;;;;;;8.63;3.30;;;22.40;90.00;;;;;;4981722;28;20036;-69
2023/08/14 02:35:59;;;;;;;6.00;3.70;;;22.30;90.10;;;;;;4980134;28;20359;-69
2023/08/14 02:38:25;;;;;;;6.23;3.43;;;22.50;90.00;;;;;;4978909;28;20641;-69
2023/08/14 02:40:50;;;;;;;7.43;3.70;;;22.50;89.50;;;;;;4984622;28;20030;-69
2023/08/14 02:43:16;;;;;;;4.47;3.33;;;22.40;90.50;;;;;;4988524;28;20038;-70
2023/08/14 02:45:42;;;;;;;5.87;3.63;;;22.40;90.70;;;;;;4993074;28;20101;-71
2023/08/14 02:48:07;;;;;;;9.50;3.87;;;22.30;90.70;;;;;;4987827;28;20077;-71
2023/08/14 02:50:33;;;;;;;4.85;3.40;;;22.30;91.10;;;;;;4989912;28;20022;-71
2023/08/14 02:52:59;;;;;;;5.13;3.33;;;22.10;91.40;;;;;;4981422;28;20066;-70
2023/08/14 02:55:26;;;;;;;7.20;3.23;;;22.20;91.50;;;;;;4988997;28;20064;-70
2023/08/14 02:57:52;;;;;;;9.75;3.83;;;22.30;91.20;;;;;;4970711;28;20019;-71
2023/08/14 03:00:20;;;;;;;3.20;2.73;;;22.30;91.00;;;;;;4975296;28;20121;-70
2023/08/14 03:02:46;;;;;;;5.55;3.45;;;22.20;91.50;;;;;;4977721;28;20113;-70
2023/08/14 03:05:12;;;;;;;6.57;3.75;;;22.20;91.60;;;;;;4980713;28;20039;-71
2023/08/14 03:07:38;;;;;;;;;;;22.20;91.40;;;;;;4980199;28;20047;-69
2023/08/14 03:10:04;;;;;;;8.80;3.67;;;22.20;91.60;;;;;;4995101;28;19913;-70
2023/08/14 03:12:30;;;;;;;;;;;22.20;91.10;;;;;;4979996;28;20077;-71
2023/08/14 03:14:55;;;;;;;4.60;3.40;;;22.30;91.60;;;;;;4977706;28;20347;-70
2023/08/14 03:17:21;;;;;;;5.47;3.53;;;22.20;91.40;;;;;;4983014;28;20026;-69
2023/08/14 03:19:47;;;;;;;7.17;3.73;;;22.20;91.50;;;;;;4994185;28;20042;-69
2023/08/14 03:22:12;;;;;;;7.80;3.80;;;22.10;91.90;;;;;;4986879;28;20052;-69
2023/08/14 03:24:38;;;;;;;5.17;3.23;;;22.10;91.70;;;;;;4975557;28;20039;-69
2023/08/14 03:27:03;;;;;;;6.93;3.60;;;22.20;91.40;;;;;;4972920;28;20027;-69
2023/08/14 03:29:29;;;;;;;8.33;3.97;;;22.10;91.70;;;;;;4976631;28;20034;-70
2023/08/14 03:31:54;;;;;;;5.87;3.73;;;22.10;91.80;;;;;;4988381;28;20038;-69
2023/08/14 03:34:20;;;;;;;5.77;4.07;;;22.20;91.60;;;;;;4983432;28;20121;-69
2023/08/14 03:36:46;;;;;;;5.90;3.60;;;22.10;92.00;;;;;;4975795;28;20026;-69
2023/08/14 03:39:11;;;;;;;5.33;4.03;;;22.10;91.60;;;;;;4975667;28;20402;-69
2023/08/14 03:41:37;;;;;;;5.80;3.67;;;22.20;91.40;;;;;;4986933;28;20152;-69
2023/08/14 03:44:03;;;;;;;8.40;3.63;;;22.30;91.10;;;;;;4969134;28;20031;-70
2023/08/14 03:46:28;;;;;;;4.47;3.63;;;22.30;90.70;;;;;;4978883;28;20348;-69
2023/08/14 03:48:54;;;;;;;5.57;3.47;;;22.30;90.80;;;;;;4977608;28;21141;-70
2023/08/14 03:51:19;;;;;;;5.33;3.60;;;22.30;90.40;;;;;;4973103;28;20027;-70
2023/08/14 03:53:45;;;;;;;4.27;3.27;;;22.40;90.30;;;;;;4977400;28;20026;-69
2023/08/14 03:56:10;;;;;;;5.10;3.30;;;22.40;90.30;;;;;;4980244;28;20109;-71
2023/08/14 03:58:36;;;;;;;8.37;3.90;;;22.40;90.10;;;;;;4973615;28;20039;-70
2023/08/14 04:01:02;;;;;;;11.10;3.80;;;22.40;90.20;;;;;;4982381;28;20127;-70
2023/08/14 04:03:27;;;;;;;4.90;3.63;;;22.30;90.30;;;;;;4973718;28;20325;-70
2023/08/14 04:05:57;;;;;;;5.03;3.70;;;22.30;90.10;;;;;;4971934;28;20019;-71
2023/08/14 04:08:23;;;;;;;8.48;3.70;;;22.40;90.00;;;;;;4979091;28;20397;-69
2023/08/14 04:10:57;;;;;;;8.27;3.92;;;22.30;90.20;;;;;;4976687;28;20068;-71
2023/08/14 04:13:25;;;;;;;5.80;3.30;;;22.30;90.00;;;;;;4969045;28;20034;-70
2023/08/14 04:15:59;;;;;;;6.75;4.10;;;22.30;90.20;;;;;;4977691;28;20979;-70
2023/08/14 04:18:26;;;;;;;10.68;4.40;;;22.30;90.20;;;;;;4974030;28;20047;-69
2023/08/14 04:20:52;;;;;;;7.20;4.18;;;22.30;90.50;;;;;;4985589;28;20041;-69
2023/08/14 04:23:17;;;;;;;7.60;3.67;;;22.30;89.90;;;;;;4977071;28;20031;-69
2023/08/14 04:25:43;;;;;;;7.93;3.70;;;22.30;90.00;;;;;;4978818;28;20596;-69
2023/08/14 04:28:10;;;;;;;7.38;3.67;;;22.30;90.20;;;;;;4975802;28;20030;-70
2023/08/14 04:30:36;;;;;;;5.95;3.40;;;22.30;89.90;;;;;;4979471;28;20517;-69
2023/08/14 04:33:01;;;;;;;9.33;3.90;;;22.30;89.90;;;;;;4973382;28;20161;-70
2023/08/14 04:35:27;;;;;;;8.40;3.80;;;22.30;89.90;;;;;;4972819;28;20031;-70
2023/08/14 04:37:52;;;;;;;8.13;3.80;;;22.30;90.10;;;;;;4974659;28;20113;-69
2023/08/14 04:40:18;;;;;;;9.13;3.80;;;22.20;90.40;;;;;;4976751;28;20034;-71
2023/08/14 04:42:44;;;;;;;6.43;3.50;;;22.10;90.20;;;;;;4971991;28;20101;-70
2023/08/14 04:45:10;;;;;;;13.27;3.50;;;22.20;90.10;;;;;;4973786;28;20129;-70
2023/08/14 04:47:35;;;;;;;5.63;3.47;;;22.10;90.10;;;;;;4975936;28;20034;-69
2023/08/14 04:50:01;;;;;;;7.03;3.10;;;22.20;90.20;;;;;;4979106;28;20031;-69
2023/08/14 04:52:26;;;;;;;8.82;4.63;;;22.30;89.80;;;;;;4985932;28;20026;-69
2023/08/14 04:54:52;;;;;;;8.50;3.80;;;22.30;90.10;;;;;;4976811;28;20035;-68
2023/08/14 04:57:18;;;;;;;9.53;4.03;;;22.20;90.60;;;;;;4979512;28;20034;-69
2023/08/14 04:59:43;;;;;;;5.97;3.37;;;22.20;90.60;;;;;;4973884;28;20297;-70
2023/08/14 05:02:09;;;;;;;8.97;3.90;;;22.30;90.70;;;;;;4977223;28;20023;-70
2023/08/14 05:04:35;;;;;;;6.20;3.40;;;22.30;90.80;;;;;;4978480;28;20042;-69
2023/08/14 05:07:01;;;;;;;5.27;3.80;;;22.30;90.80;;;;;;4982258;28;20098;-70
2023/08/14 05:09:26;;;;;;;7.10;3.63;;;22.30;90.70;;;;;;4983505;28;20119;-69
2023/08/14 05:11:52;;;;;;;6.50;4.10;;;22.40;90.60;;;;;;4980873;28;20475;-70
2023/08/14 05:14:20;;;;;;;5.77;3.80;;;22.40;90.70;;;;;;4974243;28;20041;-69
2023/08/14 05:16:46;;;;;;;6.38;3.50;;;22.50;90.60;;;;;;4981447;28;20066;-70
2023/08/14 05:19:12;;;;;;;5.63;3.47;;;22.70;90.50;;;;;;4985115;28;20513;-70
2023/08/14 05:21:37;;;;;;;5.17;3.60;;;22.90;90.50;;;;;;4978402;28;20030;-72
2023/08/14 05:24:03;;;;;;;6.77;3.83;;;22.80;90.70;;;;;;4977394;28;20117;-70
2023/08/14 18:19:01;;;;;;;8.95;2.85;;;27.00;60.00;;;;;;5029933;27;20439;-70
2023/08/14 18:21:27;;;;;;;5.63;2.70;;;28.10;58.30;;;;;;5017112;28;20144;-70
2023/08/14 18:23:52;;;;;;;7.00;2.63;;;28.50;56.90;;;;;;5022255;28;20139;-71
2023/08/14 18:26:18;;;;;;;4.15;2.00;;;28.50;56.20;;;;;;5018825;28;20026;-70
2023/08/14 18:28:43;;;;;;;5.63;2.30;;;28.50;56.70;;;;;;5025667;28;20053;-71
2023/08/14 18:31:09;;;;;;;6.50;2.20;;;28.40;57.10;;;;;;5020489;28;20297;-72
2023/08/14 18:33:35;;;;;;;7.18;2.60;;;28.30;56.40;;;;;;5022328;28;20180;-71
2023/08/14 18:36:00;;;;;;;6.82;2.08;;;28.30;56.40;;;;;;5027444;28;20029;-71
2023/08/14 18:38:26;;;;;;;4.63;2.13;;;28.40;56.10;;;;;;5019963;28;20056;-68
2023/08/14 18:40:54;;;;;;;;;;;28.30;54.90;;;;;;5010904;28;20512;-69
2023/08/14 18:43:20;;;;;;;10.95;2.10;;;28.30;56.10;;;;;;5021259;28;19927;-69
2023/08/14 18:45:46;;;;;;;19.27;2.15;;;28.20;55.70;;;;;;5021940;28;20117;-70
2023/08/14 18:48:11;;;;;;;7.28;2.10;;;28.40;54.70;;;;;;5021252;28;20049;-70
2023/08/14 18:50:37;;;;;;;8.57;2.30;;;28.30;55.40;;;;;;5017733;28;20042;-70
2023/08/14 18:53:03;;;;;;;5.68;2.15;;;28.30;55.10;;;;;;5029862;28;20044;-70
2023/08/14 18:55:29;;;;;;;15.82;2.15;;;28.30;54.80;;;;;;5016561;28;20041;-71
2023/08/14 18:57:55;;;;;;;8.68;1.95;;;28.20;54.70;;;;;;5022979;28;20117;-71
2023/08/14 19:00:20;;;;;;;11.45;2.22;;;28.30;55.40;;;;;;5023986;28;20563;-72
2023/08/14 19:02:46;;;;;;;4.65;2.03;;;28.20;56.00;;;;;;5022504;28;20053;-70
2023/08/14 19:05:11;;;;;;;7.72;2.38;;;28.00;56.40;;;;;;5023509;28;20108;-70
2023/08/14 19:07:38;;;;;;;8.45;1.90;;;28.00;55.80;;;;;;5022222;28;20026;-70
2023/08/14 19:10:05;;;;;;;5.03;1.90;;;28.00;56.50;;;;;;5023906;28;20061;-71
2023/08/14 19:12:30;;;;;;;3.60;1.85;;;28.00;55.50;;;;;;4964348;28;20581;-71
2023/08/14 19:14:56;;;;;;;5.80;1.88;;;28.00;55.90;;;;;;5013628;28;20104;-71
2023/08/14 19:17:22;;;;;;;3.47;2.33;;;28.10;54.90;;;;;;5021766;28;20053;-71
2023/08/14 19:19:48;;;;;;;;;;;28.10;55.40;;;;;;5018917;28;20101;-71
2023/08/14 19:22:16;;;;;;;4.60;1.55;;;28.10;55.10;;;;;;5019836;28;20035;-71
2023/08/14 19:24:41;;;;;;;3.90;1.88;;;28.10;55.10;;;;;;5028265;28;20029;-71
2023/08/14 19:27:07;;;;;;;9.50;1.88;;;28.10;55.10;;;;;;5017627;28;20665;-72
2023/08/14 19:29:33;;;;;;;4.93;1.95;;;28.20;55.10;;;;;;5004559;28;20041;-71
2023/08/14 19:31:58;;;;;;;9.68;2.92;;;28.00;57.20;;;;;;5006889;28;20030;-71
2023/08/14 19:34:24;;;;;;;5.38;1.83;;;27.70;59.90;;;;;;5002795;28;20038;-70
2023/08/14 19:36:50;;;;;;;5.25;1.92;;;27.30;61.20;;;;;;4999808;28;20034;-70
2023/08/14 19:39:15;;;;;;;6.60;1.95;;;27.20;63.40;;;;;;5001707;28;20042;-69
2023/08/14 19:41:41;;;;;;;6.47;1.92;;;27.10;62.20;;;;;;5013409;28;20097;-70
2023/08/14 19:44:07;;;;;;;5.88;2.90;;;27.20;61.60;;;;;;5012508;28;20029;-69
2023/08/14 19:46:32;;;;;;;6.65;2.28;;;27.40;59.60;;;;;;4998201;28;20041;-70
2023/08/14 19:48:58;;;;;;;3.17;1.77;;;27.60;58.50;;;;;;5008828;28;20104;-70
2023/08/14 19:51:24;;;;;;;3.30;1.73;;;27.70;58.70;;;;;;5006124;28;20435;-71
2023/08/14 19:53:49;;;;;;;7.63;1.75;;;27.70;58.10;;;;;;5006719;28;20285;-70
2023/08/14 19:56:15;;;;;;;5.50;1.67;;;27.70;57.50;;;;;;5011398;28;20041;-70
2023/08/14 19:58:41;;;;;;;8.05;1.98;;;27.70;57.00;;;;;;5007253;28;20315;-70
2023/08/14 20:01:06;;;;;;;5.72;1.90;;;27.70;56.40;;;;;;5005578;28;20053;-70
2023/08/14 20:03:32;;;;;;;3.70;1.88;;;27.70;56.10;;;;;;5003364;28;20073;-70
2023/08/14 20:05:58;;;;;;;4.03;2.05;;;27.60;55.90;;;;;;5007416;28;20030;-69
2023/08/14 20:08:23;;;;;;;5.40;1.60;;;27.50;56.30;;;;;;5007661;28;20204;-70
2023/08/14 20:10:50;;;;;;;4.35;1.60;;;27.50;56.00;;;;;;5004481;28;20037;-70
2023/08/14 20:13:15;;;;;;;5.95;1.63;;;27.40;56.40;;;;;;5006683;28;20390;-71
2023/08/14 20:15:43;;;;;;;4.00;1.58;;;27.30;57.00;;;;;;5007745;28;20524;-71
2023/08/14 20:18:10;;;;;;;5.53;1.40;;;27.30;57.00;;;;;;5006071;28;20048;-71
2023/08/14 20:20:38;;;;;;;6.07;1.70;;;27.20;57.70;;;;;;5000264;28;20661;-70
2023/08/14 20:23:04;;;;;;;3.50;1.73;;;27.20;57.60;;;;;;5009468;28;20025;-70
2023/08/14 20:25:30;;;;;;;4.75;2.10;;;27.10;57.60;;;;;;5004155;28;20504;-70
2023/08/14 20:27:55;;;;;;;2.40;1.50;;;27.20;56.40;;;;;;5000828;28;20125;-70
2023/08/14 20:30:21;;;;;;;4.35;1.83;;;27.20;56.60;;;;;;4983681;28;20512;-70
2023/08/14 20:32:46;;;;;;;2.22;1.50;;;27.10;57.40;;;;;;5002227;28;20022;-70
2023/08/14 20:35:12;;;;;;;4.22;1.52;;;27.00;57.10;;;;;;5012684;28;20619;-70
2023/08/14 20:37:37;;;;;;;3.97;1.40;;;27.10;56.70;;;;;;4998538;28;20034;-70
2023/08/14 20:40:04;;;;;;;3.13;1.38;;;27.00;56.30;;;;;;5010539;28;20041;-70
2023/08/14 20:42:30;;;;;;;6.60;1.60;;;26.90;56.30;;;;;;5017855;28;20117;-69
2023/08/14 20:44:55;;;;;;;3.20;1.67;;;26.90;56.80;;;;;;5009272;28;20105;-70
2023/08/14 20:47:21;;;;;;;2.67;1.73;;;26.90;56.40;;;;;;5009200;28;20460;-71
2023/08/14 20:49:47;;;;;;;4.95;1.42;;;26.90;55.90;;;;;;5006000;28;20038;-69
2023/08/14 20:52:12;;;;;;;6.10;1.80;;;26.90;55.90;;;;;;5009072;28;20696;-71
2023/08/14 20:54:38;;;;;;;5.83;1.47;;;27.00;55.80;;;;;;5009431;28;20068;-70
2023/08/14 20:57:04;;;;;;;3.25;1.88;;;27.00;55.80;;;;;;5009528;28;20046;-71
2023/08/14 20:59:29;;;;;;;3.67;1.70;;;26.90;56.40;;;;;;5007034;28;20088;-68
2023/08/14 21:01:55;;;;;;;5.67;1.40;;;26.80;57.20;;;;;;5004229;28;20030;-69
2023/08/14 21:04:21;;;;;;;2.33;1.38;;;26.70;58.20;;;;;;5003893;28;20077;-69
2023/08/14 21:06:47;;;;;;;3.75;1.65;;;26.60;58.00;;;;;;5009937;28;20037;-70
2023/08/14 21:09:12;;;;;;;3.72;1.60;;;26.60;57.60;;;;;;5004885;28;20413;-70
2023/08/14 21:11:40;;;;;;;6.63;1.70;;;26.40;58.80;;;;;;5004292;28;20133;-68
2023/08/14 21:14:05;;;;;;;4.05;1.45;;;26.40;58.80;;;;;;5005300;28;20033;-69
2023/08/14 21:16:31;;;;;;;4.03;1.48;;;26.30;58.50;;;;;;5014408;28;20029;-68
2023/08/14 21:18:57;;;;;;;5.20;2.60;;;26.30;59.20;;;;;;5009399;28;20054;-69
2023/08/14 21:21:22;;;;;;;2.80;1.43;;;26.10;59.40;;;;;;5006262;28;20026;-68
2023/08/14 21:23:48;;;;;;;4.85;2.10;;;26.00;59.20;;;;;;5012087;28;20520;-69
2023/08/14 21:26:13;;;;;;;3.90;2.35;;;26.10;59.10;;;;;;5018134;28;20065;-68
2023/08/14 21:28:39;;;;;;;4.50;1.50;;;26.10;59.50;;;;;;5011954;28;20520;-68
2023/08/14 21:31:05;;;;;;;4.70;1.40;;;26.00;59.10;;;;;;4999467;28;20105;-67
2023/08/14 21:33:30;;;;;;;3.10;1.83;;;26.00;58.00;;;;;;5011940;28;20030;-68
2023/08/14 21:35:58;;;;;;;3.80;2.20;;;26.00;58.40;;;;;;5004996;28;20058;-69
2023/08/14 21:38:24;;;;;;;2.92;1.38;;;26.10;57.30;;;;;;5007482;28;20125;-68
2023/08/14 21:40:50;;;;;;;2.42;1.30;;;26.00;57.90;;;;;;5012380;28;20124;-68
2023/08/14 21:43:17;;;;;;;1.38;1.25;;;26.00;58.20;;;;;;5013883;28;20053;-69
2023/08/14 21:45:45;;;;;;;3.20;1.38;;;25.90;59.20;;;;;;5009708;28;20036;-68
2023/08/14 21:48:10;;;;;;;3.17;1.83;;;26.00;58.40;;;;;;5014270;28;20030;-68
2023/08/14 21:50:36;;;;;;;2.73;1.20;;;26.00;57.90;;;;;;5008860;28;20080;-68
2023/08/14 21:53:02;;;;;;;2.60;1.60;;;26.00;58.20;;;;;;5017094;28;20306;-69
2023/08/14 21:55:27;;;;;;;6.50;1.67;;;26.00;58.60;;;;;;5012329;28;20319;-69
2023/08/14 21:57:53;;;;;;;2.03;1.40;;;26.10;57.40;;;;;;5004116;28;20050;-69
2023/08/14 22:00:18;;;;;;;2.30;1.60;;;26.10;57.20;;;;;;5013353;28;20460;-67
2023/08/14 22:02:44;;;;;;;1.77;1.33;;;26.10;57.70;;;;;;5004768;28;20293;-67
2023/08/14 22:05:10;;;;;;;6.17;1.67;;;26.20;57.50;;;;;;5014821;28;20323;-68
2023/08/14 22:07:35;;;;;;;3.53;1.40;;;26.00;58.30;;;;;;5005225;28;20472;-68
2023/08/14 22:10:02;;;;;;;5.97;1.20;;;26.00;58.30;;;;;;5015686;28;20035;-68
2023/08/14 22:12:28;;;;;;;4.38;1.38;;;25.90;58.20;;;;;;5005730;28;20312;-67
2023/08/14 22:14:53;;;;;;;3.00;1.50;;;25.90;58.60;;;;;;5008304;28;20072;-67
2023/08/14 22:17:19;;;;;;;5.03;1.70;;;25.90;58.50;;;;;;5010050;28;20038;-68
2023/08/14 22:19:44;;;;;;;1.85;1.50;;;25.80;59.10;;;;;;5012341;28;20037;-69
2023/08/14 22:22:10;;;;;;;2.47;1.50;;;25.60;60.00;;;;;;5008572;28;20042;-68
2023/08/14 22:24:36;;;;;;;4.43;1.40;;;25.60;59.00;;;;;;5009766;28;20300;-68
2023/08/14 22:27:03;;;;;;;2.23;1.50;;;25.60;59.20;;;;;;5009866;28;20031;-68
2023/08/14 22:29:29;;;;;;;1.85;1.40;;;25.60;59.30;;;;;;5017204;28;20273;-68
2023/08/14 22:31:54;;;;;;;3.17;1.52;;;25.50;59.80;;;;;;5009041;28;20823;-69
2023/08/14 22:34:20;;;;;;;1.53;1.20;;;25.50;58.80;;;;;;5006504;28;20072;-68
2023/08/14 22:36:45;;;;;;;2.80;1.37;;;25.50;59.40;;;;;;5005138;28;20364;-68
2023/08/14 22:39:11;;;;;;;2.83;1.50;;;25.40;60.60;;;;;;5008430;28;20046;-68
2023/08/14 22:41:36;;;;;;;2.07;1.40;;;25.40;59.60;;;;;;5014237;28;20285;-67
2023/08/14 22:44:02;;;;;;;2.07;1.37;;;25.40;60.40;;;;;;5014503;28;20029;-68
2023/08/14 22:46:28;;;;;;;5.25;1.58;;;25.40;59.90;;;;;;5014044;28;20276;-68
2023/08/14 22:48:53;;;;;;;3.33;1.50;;;25.50;59.10;;;;;;5008543;28;20408;-68
2023/08/14 22:51:19;;;;;;;4.30;1.27;;;25.50;60.00;;;;;;5001405;28;20038;-68
2023/08/14 22:53:44;;;;;;;3.00;1.70;;;25.50;59.50;;;;;;5008521;28;20287;-68
2023/08/14 22:56:10;;;;;;;4.78;1.50;;;25.50;60.00;;;;;;5006204;28;20431;-68
2023/08/14 22:58:36;;;;;;;7.03;1.40;;;25.50;59.60;;;;;;5005467;28;20597;-68
2023/08/14 23:01:01;;;;;;;2.70;1.50;;;25.40;60.60;;;;;;5010130;28;20030;-68
2023/08/14 23:03:27;;;;;;;4.37;1.83;;;25.30;60.10;;;;;;5011420;28;20040;-67
2023/08/14 23:05:52;;;;;;;6.03;1.87;;;25.20;60.60;;;;;;5016332;28;20618;-67
2023/08/14 23:08:18;;;;;;;3.67;1.40;;;25.40;59.70;;;;;;5015605;28;20387;-66
2023/08/14 23:10:45;;;;;;;2.70;1.73;;;25.40;60.10;;;;;;5016576;28;20124;-67
2023/08/14 23:13:11;;;;;;;4.25;1.90;;;25.40;60.60;;;;;;5010350;28;20512;-67
2023/08/14 23:15:37;;;;;;;2.10;1.35;;;25.30;61.60;;;;;;5016037;28;20112;-67
2023/08/14 23:18:03;;;;;;;2.73;1.83;;;25.30;61.10;;;;;;5009189;28;20073;-67
2023/08/14 23:20:28;;;;;;;4.07;1.85;;;25.30;60.90;;;;;;5009711;28;20655;-68
2023/08/14 23:22:54;;;;;;;2.40;1.70;;;25.20;60.30;;;;;;5009653;28;20046;-68
2023/08/14 23:25:20;;;;;;;4.83;1.70;;;25.20;61.80;;;;;;5010958;28;20053;-67
2023/08/14 23:27:45;;;;;;;6.47;1.92;;;25.00;63.00;;;;;;5018627;28;20037;-68
2023/08/14 23:30:11;;;;;;;3.08;1.83;;;24.90;62.60;;;;;;5017094;28;20266;-68
2023/08/14 23:32:37;;;;;;;4.65;1.70;;;24.90;62.40;;;;;;5007525;28;20040;-67
2023/08/14 23:35:03;;;;;;;2.87;1.70;;;24.90;61.60;;;;;;5011356;28;20207;-67
2023/08/14 23:37:29;;;;;;;;;;;25.00;62.00;;;;;;5003496;28;20331;-68
2023/08/14 23:39:54;;;;;;;4.18;1.80;;;24.90;63.20;;;;;;5009710;28;19956;-68
2023/08/14 23:42:21;;;;;;;4.50;1.70;;;24.80;62.70;;;;;;5020257;28;20127;-68
2023/08/14 23:44:46;;;;;;;;;;;24.70;63.60;;;;;;5009947;28;20022;-68
2023/08/14 23:47:12;;;;;;;7.20;2.10;;;24.70;62.40;;;;;;5010328;28;19918;-68
2023/08/14 23:49:37;;;;;;;1.70;1.50;;;24.80;62.90;;;;;;5012788;28;20042;-68
2023/08/14 23:52:03;;;;;;;5.77;1.90;;;24.70;63.40;;;;;;5013516;28;20025;-68
2023/08/14 23:54:30;;;;;;;5.38;1.90;;;24.80;62.40;;;;;;5016204;28;20296;-68
2023/08/14 23:56:56;;;;;;;6.63;1.95;;;24.80;62.40;;;;;;5014085;28;20032;-68
2023/08/14 23:59:21;;;;;;;4.77;1.93;;;24.80;63.00;;;;;;5010599;28;20045;-68
